Time;durP1;ratioP1;P1;durP2;ratioP2;P2;SDS_P1;SDS_P2;PMS_P1;PMS_P2;Temp;Humidity;BMP_temperature;BMP_pressure;BME280_temperature;BME280_humidity;BME280_pressure;Samples;Min_cycle;Max_cycle;Signal;HPM_P1;HPM_P2
2022/03/24 00:02:25;;;;;;;21.90;12.07;;;6.30;69.00;;;;;;5034846;28;20028;-69
2022/03/24 00:04:51;;;;;;;23.45;11.15;;;6.40;69.10;;;;;;5034837;28;20033;-71
2022/03/24 00:07:17;;;;;;;23.67;12.05;;;6.30;69.30;;;;;;5034669;28;20112;-70
2022/03/24 00:09:43;;;;;;;21.35;12.15;;;6.30;69.40;;;;;;5032989;28;20022;-69
2022/03/24 00:12:10;;;;;;;23.65;12.57;;;6.30;69.50;;;;;;5034242;28;20029;-69
2022/03/24 00:14:36;;;;;;;21.33;11.23;;;6.20;69.30;;;;;;5034071;28;20498;-69
2022/03/24 00:17:02;;;;;;;18.83;11.07;;;6.20;69.30;;;;;;5032912;28;20025;-70
2022/03/24 00:19:28;;;;;;;19.02;10.73;;;6.20;69.40;;;;;;5015269;28;20499;-70
2022/03/24 00:21:54;;;;;;;22.40;11.60;;;6.20;69.00;;;;;;5015682;28;20032;-70
2022/03/24 00:24:20;;;;;;;17.35;11.40;;;6.20;68.40;;;;;;5014543;28;20121;-70
2022/03/24 00:26:46;;;;;;;21.70;10.88;;;6.20;68.60;;;;;;5014970;28;20022;-70
2022/03/24 00:29:13;;;;;;;20.58;10.88;;;6.10;68.60;;;;;;5014340;28;20029;-70
2022/03/24 00:31:39;;;;;;;21.33;11.20;;;6.10;68.80;;;;;;5012921;28;20045;-69
2022/03/24 00:34:05;;;;;;;21.27;11.35;;;6.10;68.50;;;;;;5014058;28;20025;-70
2022/03/24 00:36:31;;;;;;;21.52;11.15;;;6.10;68.40;;;;;;5013835;28;20499;-69
2022/03/24 00:38:57;;;;;;;22.02;11.30;;;6.10;68.80;;;;;;5012669;28;20026;-70
2022/03/24 00:41:23;;;;;;;21.95;12.30;;;6.00;69.50;;;;;;5014371;28;20076;-70
2022/03/24 00:43:49;;;;;;;23.05;12.05;;;6.00;70.70;;;;;;5014405;28;20478;-70
2022/03/24 00:46:22;;;;;;;21.50;11.63;;;6.00;71.40;;;;;;5032201;28;20043;-70
2022/03/24 00:48:52;;;;;;;25.55;13.07;;;5.90;72.40;;;;;;5032347;28;20064;-69
2022/03/24 00:51:19;;;;;;;21.50;12.07;;;5.80;73.80;;;;;;5024636;28;20025;-70
2022/03/24 00:53:46;;;;;;;23.13;12.48;;;5.80;75.10;;;;;;5032353;28;20044;-70
2022/03/24 00:56:11;;;;;;;23.02;12.40;;;5.70;76.00;;;;;;5027145;28;20389;-70
2022/03/24 00:58:38;;;;;;;24.95;14.50;;;5.70;77.10;;;;;;5034164;28;20029;-70
2022/03/24 01:01:06;;;;;;;28.55;13.82;;;5.60;78.60;;;;;;5032757;28;20510;-69
2022/03/24 01:03:35;;;;;;;23.17;12.50;;;5.50;78.90;;;;;;5033441;28;20139;-70
2022/03/24 01:06:02;;;;;;;22.23;11.90;;;5.50;78.00;;;;;;5033073;28;20391;-70
2022/03/24 01:08:29;;;;;;;22.10;11.98;;;5.40;77.40;;;;;;5023337;28;20025;-70
2022/03/24 01:10:55;;;;;;;22.40;12.63;;;5.40;76.70;;;;;;5011954;28;20525;-70
2022/03/24 01:13:21;;;;;;;22.33;12.05;;;5.40;76.30;;;;;;5018586;28;20029;-70
2022/03/24 01:15:47;;;;;;;23.13;12.05;;;5.30;76.30;;;;;;5032059;28;20474;-70
2022/03/24 01:18:14;;;;;;;18.40;11.15;;;5.30;76.30;;;;;;5033107;28;20014;-69
2022/03/24 01:20:41;;;;;;;21.88;12.65;;;5.20;76.20;;;;;;5032916;28;20018;-70
2022/03/24 01:23:07;;;;;;;22.33;12.15;;;5.20;76.40;;;;;;5030652;28;20382;-69
2022/03/24 01:25:33;;;;;;;24.58;12.52;;;5.20;77.10;;;;;;5032952;28;20025;-69
2022/03/24 01:27:59;;;;;;;22.15;11.48;;;5.20;77.00;;;;;;5033037;28;20029;-68
2022/03/24 01:30:25;;;;;;;24.60;12.52;;;5.20;76.90;;;;;;5032854;28;20065;-70
2022/03/24 01:32:51;;;;;;;22.02;12.50;;;5.10;76.90;;;;;;5031514;28;20132;-70
2022/03/24 01:35:17;;;;;;;23.33;12.27;;;5.10;76.90;;;;;;5031429;28;20040;-71
2022/03/24 01:37:44;;;;;;;25.88;12.50;;;5.00;77.30;;;;;;5031506;28;20105;-70
2022/03/24 01:40:11;;;;;;;25.42;12.60;;;5.00;77.60;;;;;;5032705;28;20029;-69
2022/03/24 01:42:38;;;;;;;26.25;12.70;;;5.00;78.70;;;;;;5018558;28;20028;-69
2022/03/24 01:45:05;;;;;;;27.50;13.15;;;5.00;78.20;;;;;;5014495;28;20430;-69
2022/03/24 01:47:32;;;;;;;25.17;12.38;;;4.90;78.20;;;;;;5032692;28;20057;-70
2022/03/24 01:49:58;;;;;;;26.38;13.63;;;5.00;78.80;;;;;;5032086;28;20071;-69
2022/03/24 01:52:25;;;;;;;24.05;12.43;;;4.90;78.60;;;;;;5031290;28;20112;-69
2022/03/24 01:54:56;;;;;;;25.48;12.43;;;4.90;78.30;;;;;;5032368;28;20033;-70
2022/03/24 01:57:25;;;;;;;25.98;11.82;;;4.80;78.70;;;;;;5032086;28;20057;-71
2022/03/24 01:59:51;;;;;;;26.58;13.25;;;4.80;78.60;;;;;;5032242;28;20180;-69
2022/03/24 02:02:23;;;;;;;23.50;12.43;;;4.80;78.90;;;;;;5031883;28;20022;-70
2022/03/24 02:04:49;;;;;;;25.02;12.95;;;4.70;78.80;;;;;;5032424;28;20159;-69
2022/03/24 02:07:15;;;;;;;22.55;12.88;;;4.70;79.70;;;;;;5032261;28;20521;-70
2022/03/24 02:09:41;;;;;;;25.67;12.98;;;4.60;80.30;;;;;;5031869;28;20045;-70
2022/03/24 02:12:12;;;;;;;25.52;13.25;;;4.60;81.80;;;;;;5030794;28;20018;-70
2022/03/24 02:14:39;;;;;;;22.40;11.75;;;4.60;82.90;;;;;;5032157;28;20022;-70
2022/03/24 02:17:08;;;;;;;20.35;10.50;;;4.60;82.50;;;;;;5031948;28;20022;-70
2022/03/24 02:19:36;;;;;;;25.08;12.23;;;4.60;81.90;;;;;;5032727;28;20029;-71
2022/03/24 02:22:15;;;;;;;26.38;13.32;;;4.50;81.80;;;;;;5030519;28;20100;-70
2022/03/24 02:24:41;;;;;;;24.83;13.93;;;4.40;84.50;;;;;;5030506;28;20116;-70
2022/03/24 02:27:08;;;;;;;23.38;13.68;;;4.30;87.20;;;;;;5028628;28;20112;-70
2022/03/24 02:29:40;;;;;;;24.50;12.82;;;4.20;89.20;;;;;;5031760;28;20022;-69
2022/03/24 02:32:08;;;;;;;24.80;12.32;;;4.20;89.70;;;;;;5032087;28;20105;-69
2022/03/24 02:34:38;;;;;;;26.77;12.43;;;4.20;89.10;;;;;;5031898;28;20531;-70
2022/03/24 02:37:09;;;;;;;21.88;12.35;;;4.20;90.30;;;;;;5032187;28;20033;-70
2022/03/24 02:39:39;;;;;;;25.13;12.02;;;4.20;90.50;;;;;;5030548;28;20494;-69
2022/03/24 02:42:08;;;;;;;22.77;11.93;;;4.20;90.70;;;;;;5031693;28;20025;-70
2022/03/24 02:44:34;;;;;;;22.63;12.27;;;4.20;90.50;;;;;;5031816;28;20022;-70
2022/03/24 02:47:01;;;;;;;25.33;11.98;;;4.10;90.10;;;;;;5031856;28;20079;-70
2022/03/24 02:49:31;;;;;;;22.40;12.30;;;4.10;89.00;;;;;;5031527;28;20037;-69
2022/03/24 02:51:59;;;;;;;30.45;12.13;;;4.10;89.80;;;;;;5031695;28;20482;-70
2022/03/24 02:54:26;;;;;;;21.70;12.05;;;4.00;89.20;;;;;;5031830;28;20123;-69
2022/03/24 02:56:52;;;;;;;23.08;12.00;;;4.00;90.20;;;;;;5030197;28;20037;-70
2022/03/24 02:59:18;;;;;;;22.77;12.32;;;4.00;89.50;;;;;;5031803;28;20030;-70
2022/03/24 03:01:54;;;;;;;22.38;12.07;;;4.00;89.40;;;;;;5031525;28;20030;-70
2022/03/24 03:04:21;;;;;;;24.60;12.10;;;4.00;89.30;;;;;;5031758;28;20025;-69
2022/03/24 03:06:54;;;;;;;22.73;11.65;;;4.00;89.20;;;;;;5031633;28;20032;-70
2022/03/24 03:09:21;;;;;;;22.17;11.68;;;4.00;89.50;;;;;;5030191;28;20108;-70
2022/03/24 03:11:48;;;;;;;25.80;12.60;;;3.90;89.90;;;;;;5028702;28;20033;-69
2022/03/24 03:14:16;;;;;;;24.45;12.27;;;3.90;90.40;;;;;;5011795;28;20029;-69
2022/03/24 03:16:43;;;;;;;22.30;12.45;;;3.80;90.70;;;;;;5011808;28;20036;-68
2022/03/24 03:19:09;;;;;;;23.02;12.95;;;3.70;91.30;;;;;;5010365;28;20033;-70
2022/03/24 03:21:41;;;;;;;22.75;11.63;;;3.70;91.90;;;;;;5011605;28;20026;-70
2022/03/24 03:24:08;;;;;;;21.75;12.13;;;3.70;92.70;;;;;;5010474;28;20061;-70
2022/03/24 03:26:35;;;;;;;23.73;12.65;;;3.70;93.60;;;;;;5013995;28;20076;-69
2022/03/24 03:29:01;;;;;;;25.67;12.18;;;3.60;94.50;;;;;;5015116;28;20108;-70
2022/03/24 03:31:29;;;;;;;23.42;11.55;;;3.50;95.00;;;;;;5015381;28;20495;-69
2022/03/24 03:33:56;;;;;;;21.35;11.68;;;3.50;95.90;;;;;;5014054;28;20075;-70
2022/03/24 03:36:22;;;;;;;22.35;11.77;;;3.40;96.40;;;;;;5015062;28;20033;-70
2022/03/24 03:38:49;;;;;;;23.15;12.68;;;3.40;97.00;;;;;;5025126;28;20064;-70
2022/03/24 03:41:16;;;;;;;23.85;13.02;;;3.40;97.40;;;;;;5034012;28;20026;-69
2022/03/24 03:43:44;;;;;;;20.80;11.95;;;3.40;97.60;;;;;;5035787;28;20021;-70
2022/03/24 03:46:11;;;;;;;23.05;12.05;;;3.40;97.70;;;;;;5033537;28;20025;-70
2022/03/24 03:48:38;;;;;;;26.75;12.98;;;3.40;98.00;;;;;;5016929;28;20049;-70
2022/03/24 03:51:05;;;;;;;23.95;12.95;;;3.40;98.40;;;;;;5015898;28;20034;-69
2022/03/24 03:53:30;;;;;;;23.50;12.68;;;3.40;98.10;;;;;;5033532;28;20026;-70
2022/03/24 03:55:56;;;;;;;25.05;12.85;;;3.30;98.30;;;;;;5033305;28;20036;-70
2022/03/24 03:58:22;;;;;;;26.58;14.02;;;3.30;98.40;;;;;;5034512;28;20151;-70
2022/03/24 04:00:55;;;;;;;22.52;12.20;;;3.20;99.00;;;;;;5034251;28;20029;-69
2022/03/24 04:03:25;;;;;;;25.25;12.95;;;3.20;99.30;;;;;;5030002;28;20021;-68
2022/03/24 04:05:52;;;;;;;21.10;11.65;;;3.20;99.20;;;;;;5023536;28;20095;-67
2022/03/24 04:08:18;;;;;;;29.08;12.80;;;3.10;98.60;;;;;;5028644;28;20029;-68
2022/03/24 04:10:48;;;;;;;24.85;12.38;;;3.20;98.20;;;;;;5022768;28;20445;-68
2022/03/24 04:13:21;;;;;;;24.63;12.20;;;3.20;97.80;;;;;;5026128;28;20052;-68
2022/03/24 04:15:48;;;;;;;24.90;11.87;;;3.20;97.00;;;;;;5026953;28;20108;-68
2022/03/24 04:18:14;;;;;;;25.52;12.98;;;3.10;96.50;;;;;;5029681;28;20026;-68
2022/03/24 04:20:41;;;;;;;24.52;13.32;;;3.10;97.20;;;;;;5025893;28;20021;-68
2022/03/24 04:23:11;;;;;;;29.55;14.00;;;3.10;97.70;;;;;;5022670;28;20503;-67
2022/03/24 04:25:38;;;;;;;26.33;14.85;;;3.10;99.00;;;;;;5022342;28;20045;-67
2022/03/24 04:28:05;;;;;;;29.63;14.45;;;3.00;99.90;;;;;;5023612;28;20390;-67
2022/03/24 04:30:31;;;;;;;31.23;14.73;;;3.00;99.90;;;;;;5017242;28;20026;-68
2022/03/24 04:32:58;;;;;;;30.35;13.63;;;2.90;99.90;;;;;;5018337;28;20049;-69
2022/03/24 04:35:23;;;;;;;24.80;14.57;;;2.90;99.90;;;;;;5024822;28;20057;-68
2022/03/24 04:37:50;;;;;;;26.15;13.55;;;2.90;99.90;;;;;;5021091;28;20033;-68
2022/03/24 04:40:18;;;;;;;27.02;14.25;;;2.90;99.80;;;;;;5026232;28;20067;-68
2022/03/24 04:42:49;;;;;;;27.10;13.40;;;2.90;99.60;;;;;;5027185;28;20375;-68
2022/03/24 04:45:17;;;;;;;23.30;11.98;;;3.00;99.30;;;;;;5022104;28;20033;-68
2022/03/24 04:47:44;;;;;;;27.13;12.35;;;3.00;98.40;;;;;;5023262;28;20520;-68
2022/03/24 04:50:10;;;;;;;24.48;12.38;;;3.00;97.70;;;;;;5024113;28;20095;-68
2022/03/24 04:52:36;;;;;;;25.17;12.95;;;2.90;97.60;;;;;;5026831;28;20549;-67
2022/03/24 04:55:02;;;;;;;23.90;12.52;;;3.00;97.60;;;;;;5021955;28;20117;-68
2022/03/24 04:57:29;;;;;;;26.65;13.10;;;2.90;97.50;;;;;;5027203;28;20109;-67
2022/03/24 04:59:57;;;;;;;25.13;13.27;;;2.90;97.50;;;;;;5026222;28;20043;-68
2022/03/24 05:02:24;;;;;;;25.65;12.85;;;2.90;97.60;;;;;;5023569;28;20033;-67
2022/03/24 05:04:50;;;;;;;31.17;13.48;;;2.80;97.80;;;;;;5023595;28;20049;-67
2022/03/24 05:07:22;;;;;;;25.38;12.40;;;2.90;98.40;;;;;;5019980;28;20105;-67
2022/03/24 05:09:52;;;;;;;29.65;12.82;;;2.80;99.40;;;;;;5018387;28;20029;-67
2022/03/24 05:12:19;;;;;;;29.45;13.60;;;2.70;99.90;;;;;;5021193;28;20022;-67
2022/03/24 05:14:45;;;;;;;28.45;14.82;;;2.70;99.90;;;;;;5027020;28;20025;-67
2022/03/24 05:17:12;;;;;;;27.88;13.88;;;2.60;99.90;;;;;;5023963;28;20108;-66
2022/03/24 05:19:37;;;;;;;25.77;13.30;;;2.60;99.90;;;;;;5024763;28;20021;-67
2022/03/24 05:22:03;;;;;;;28.98;13.70;;;2.60;99.90;;;;;;5021287;28;20033;-67
2022/03/24 05:24:29;;;;;;;25.85;13.57;;;2.60;99.90;;;;;;5013561;28;20035;-67
2022/03/24 05:26:55;;;;;;;26.88;13.80;;;2.50;99.90;;;;;;5020264;28;20494;-67
2022/03/24 05:29:20;;;;;;;27.45;13.38;;;2.50;99.90;;;;;;5021631;28;20537;-68
2022/03/24 05:31:46;;;;;;;27.67;14.35;;;2.50;99.90;;;;;;5019357;28;20038;-67
2022/03/24 05:34:12;;;;;;;31.40;14.05;;;2.50;99.90;;;;;;5024167;28;20026;-67
2022/03/24 05:36:39;;;;;;;25.63;12.82;;;2.40;99.90;;;;;;5016999;28;20107;-67
2022/03/24 05:39:05;;;;;;;34.72;14.35;;;2.40;99.90;;;;;;5023290;28;20520;-67
2022/03/24 05:41:31;;;;;;;27.60;13.35;;;2.40;99.90;;;;;;5021210;28;20028;-67
2022/03/24 05:44:02;;;;;;;23.25;12.82;;;2.40;99.90;;;;;;5023187;28;20113;-67
2022/03/24 05:46:40;;;;;;;24.90;12.93;;;2.40;99.90;;;;;;5020098;28;20478;-67
2022/03/24 05:49:10;;;;;;;31.88;13.93;;;2.50;99.90;;;;;;5023207;28;20109;-67
2022/03/24 05:51:36;;;;;;;23.90;13.35;;;2.50;99.90;;;;;;5024653;28;20021;-68
2022/03/24 05:54:03;;;;;;;25.83;13.15;;;2.60;99.90;;;;;;5022590;28;20033;-67
2022/03/24 05:56:29;;;;;;;27.27;14.18;;;2.60;99.90;;;;;;5018388;28;20056;-67
2022/03/24 05:58:56;;;;;;;25.52;13.50;;;2.70;99.90;;;;;;5025896;28;20056;-67
2022/03/24 06:01:24;;;;;;;29.98;15.10;;;2.70;99.90;;;;;;5013397;28;20060;-67
2022/03/24 06:03:51;;;;;;;31.67;15.13;;;2.80;99.90;;;;;;5016516;28;20083;-67
2022/03/24 06:06:18;;;;;;;27.85;14.48;;;2.90;99.90;;;;;;5027106;28;20402;-67
2022/03/24 06:08:44;;;;;;;29.60;14.40;;;2.90;99.90;;;;;;5025003;28;20032;-67
2022/03/24 06:11:13;;;;;;;26.02;13.98;;;2.90;99.90;;;;;;5023346;28;20091;-67
2022/03/24 06:13:40;;;;;;;26.90;13.25;;;3.10;99.90;;;;;;5020736;28;20465;-67
2022/03/24 06:16:07;;;;;;;34.80;15.77;;;3.10;99.90;;;;;;5027153;28;20116;-67
2022/03/24 06:18:33;;;;;;;30.60;14.23;;;3.20;99.90;;;;;;5020450;28;20510;-67
2022/03/24 06:20:59;;;;;;;30.10;15.27;;;3.30;99.90;;;;;;5019401;28;20444;-67
2022/03/24 06:23:25;;;;;;;30.42;15.77;;;3.40;99.90;;;;;;5022717;28;20095;-67
2022/03/24 06:25:51;;;;;;;29.55;16.65;;;3.50;99.90;;;;;;5018939;28;20032;-67
2022/03/24 06:28:17;;;;;;;26.63;15.35;;;3.50;99.90;;;;;;5015467;28;20034;-67
2022/03/24 06:30:43;;;;;;;27.88;15.85;;;3.70;99.90;;;;;;5024905;28;20061;-67
2022/03/24 06:33:09;;;;;;;30.05;15.32;;;3.80;99.80;;;;;;5017364;28;20415;-67
2022/03/24 06:35:34;;;;;;;31.63;16.27;;;3.80;99.30;;;;;;5023664;28;20037;-67
2022/03/24 06:38:00;;;;;;;27.88;15.38;;;3.90;98.90;;;;;;5024791;28;20034;-67
2022/03/24 06:40:26;;;;;;;34.17;17.33;;;4.00;98.40;;;;;;5022257;28;20402;-67
2022/03/24 06:42:52;;;;;;;36.17;16.00;;;4.00;98.00;;;;;;5022622;28;20071;-67
2022/03/24 06:45:18;;;;;;;28.73;14.60;;;4.10;97.30;;;;;;5020252;28;20032;-67
2022/03/24 06:47:44;;;;;;;29.77;15.10;;;4.10;96.90;;;;;;5019391;28;20033;-68
2022/03/24 06:50:13;;;;;;;29.65;15.27;;;4.20;96.90;;;;;;5022149;28;20036;-68
2022/03/24 06:52:43;;;;;;;29.48;14.50;;;4.20;96.40;;;;;;5021518;28;20072;-67
2022/03/24 06:55:10;;;;;;;36.00;22.63;;;4.30;96.40;;;;;;5018505;28;22020;-67
2022/03/24 06:57:41;;;;;;;33.90;17.92;;;4.30;96.30;;;;;;5021373;28;20151;-67
2022/03/24 07:00:13;;;;;;;32.47;15.98;;;4.30;96.20;;;;;;5021408;28;20029;-67
2022/03/24 07:02:40;;;;;;;34.05;16.95;;;4.40;96.20;;;;;;5018177;28;20072;-67
2022/03/24 07:05:11;;;;;;;29.08;15.40;;;4.40;96.40;;;;;;5026883;28;20025;-67
2022/03/24 07:07:37;;;;;;;36.22;16.65;;;4.50;96.10;;;;;;5026642;28;20021;-67
2022/03/24 07:10:03;;;;;;;34.67;16.27;;;4.70;95.80;;;;;;5023348;28;20021;-67
2022/03/24 07:12:29;;;;;;;32.95;15.57;;;4.70;95.70;;;;;;5019559;28;20022;-67
2022/03/24 07:14:55;;;;;;;32.60;16.77;;;4.80;95.50;;;;;;5023269;28;20099;-67
2022/03/24 07:17:21;;;;;;;34.78;15.45;;;4.80;95.10;;;;;;5027505;28;20108;-68
2022/03/24 07:19:47;;;;;;;31.30;16.55;;;4.90;95.00;;;;;;5023930;28;20017;-68
2022/03/24 07:22:13;;;;;;;32.55;15.88;;;4.90;95.00;;;;;;5020980;28;20022;-68
2022/03/24 07:24:39;;;;;;;32.78;15.57;;;5.00;94.70;;;;;;5019966;28;20095;-68
2022/03/24 07:27:06;;;;;;;27.10;15.15;;;5.10;94.70;;;;;;5023054;28;20642;-67
2022/03/24 07:29:32;;;;;;;31.38;16.90;;;5.20;94.40;;;;;;5019295;28;20460;-67
2022/03/24 07:31:59;;;;;;;35.08;16.05;;;5.30;94.40;;;;;;5029843;28;20021;-67
2022/03/24 07:34:26;;;;;;;29.55;17.02;;;5.30;93.70;;;;;;5020768;28;20030;-67
2022/03/24 07:36:51;;;;;;;38.10;17.05;;;5.40;93.50;;;;;;5016724;28;20491;-68
2022/03/24 07:39:17;;;;;;;25.08;15.00;;;5.50;92.90;;;;;;5024983;28;20064;-67
2022/03/24 07:41:44;;;;;;;32.45;15.73;;;5.60;92.60;;;;;;5028773;28;20018;-67
2022/03/24 07:44:10;;;;;;;31.10;17.08;;;5.70;92.50;;;;;;5028474;28;20033;-67
2022/03/24 07:46:35;;;;;;;27.38;15.07;;;5.80;92.20;;;;;;5021048;28;20081;-67
2022/03/24 07:49:01;;;;;;;27.80;15.15;;;5.80;92.10;;;;;;5024552;28;20030;-67
2022/03/24 07:51:32;;;;;;;29.25;15.50;;;6.00;91.70;;;;;;5023630;28;20095;-67
2022/03/24 07:53:59;;;;;;;26.55;14.57;;;6.10;91.60;;;;;;5025323;28;20112;-67
2022/03/24 07:56:26;;;;;;;33.70;16.20;;;6.20;91.20;;;;;;5022846;28;20026;-68
2022/03/24 07:58:53;;;;;;;32.50;15.60;;;6.20;91.10;;;;;;5026766;28;20025;-67
2022/03/24 08:01:26;;;;;;;33.90;15.20;;;6.40;90.90;;;;;;5026786;28;20018;-67
2022/03/24 08:03:53;;;;;;;33.50;16.63;;;6.50;90.70;;;;;;5024926;28;20036;-67
2022/03/24 08:06:23;;;;;;;31.90;15.40;;;6.60;90.50;;;;;;5024106;28;20101;-67
2022/03/24 08:08:48;;;;;;;30.98;16.58;;;6.70;90.40;;;;;;5025268;28;20053;-67
2022/03/24 08:11:14;;;;;;;34.55;16.83;;;6.80;90.50;;;;;;5025219;28;20053;-67
2022/03/24 08:13:40;;;;;;;34.28;17.10;;;6.80;90.40;;;;;;5022102;28;20072;-67
2022/03/24 08:16:06;;;;;;;30.85;16.38;;;6.90;90.30;;;;;;5027387;28;20021;-67
2022/03/24 08:18:32;;;;;;;28.85;15.55;;;7.00;90.30;;;;;;5023121;28;20116;-68
2022/03/24 08:20:58;;;;;;;30.73;16.65;;;7.10;90.00;;;;;;5024891;28;20041;-68
2022/03/24 08:23:24;;;;;;;27.75;16.00;;;7.20;89.00;;;;;;5030034;28;20079;-68
2022/03/24 08:25:51;;;;;;;29.75;16.08;;;7.20;88.60;;;;;;5022408;28;20029;-68
2022/03/24 08:28:17;;;;;;;29.02;15.63;;;7.30;87.60;;;;;;5021989;28;20025;-67
2022/03/24 08:30:47;;;;;;;32.97;17.23;;;7.40;86.90;;;;;;5021930;28;20140;-66
2022/03/24 08:33:13;;;;;;;33.15;16.23;;;7.50;86.80;;;;;;5028212;28;20082;-68
2022/03/24 08:35:40;;;;;;;36.33;16.58;;;7.60;86.80;;;;;;5020706;28;20025;-66
2022/03/24 08:38:07;;;;;;;32.08;16.45;;;7.60;86.80;;;;;;5024992;28;20025;-66
2022/03/24 08:40:33;;;;;;;28.38;16.38;;;7.80;85.80;;;;;;5025548;28;20104;-67
2022/03/24 08:42:59;;;;;;;28.55;15.60;;;7.90;85.50;;;;;;5023066;28;20099;-66
2022/03/24 08:45:25;;;;;;;28.23;15.77;;;8.00;85.10;;;;;;5018879;28;20033;-67
2022/03/24 08:47:51;;;;;;;30.95;16.33;;;8.20;84.90;;;;;;5026775;28;20482;-67
2022/03/24 08:50:17;;;;;;;28.05;15.38;;;8.30;83.80;;;;;;5027217;28;20524;-66
2022/03/24 08:52:43;;;;;;;30.65;16.45;;;8.40;83.70;;;;;;5021855;28;20057;-66
2022/03/24 08:55:11;;;;;;;32.75;15.02;;;8.50;83.30;;;;;;5028561;28;20025;-66
2022/03/24 08:57:37;;;;;;;28.23;15.27;;;8.60;82.10;;;;;;5021838;28;20074;-66
2022/03/24 09:00:15;;;;;;;31.95;16.30;;;8.70;81.70;;;;;;5024662;28;20029;-66
2022/03/24 09:02:46;;;;;;;34.05;16.08;;;8.80;81.10;;;;;;5038622;28;20116;-67
2022/03/24 09:05:12;;;;;;;32.17;15.82;;;9.00;80.60;;;;;;5017773;28;20038;-67
2022/03/24 09:07:38;;;;;;;29.00;15.05;;;9.00;79.20;;;;;;5020413;28;20026;-67
2022/03/24 09:10:06;;;;;;;28.58;15.43;;;9.10;78.30;;;;;;5022021;28;20103;-67
2022/03/24 09:12:34;;;;;;;30.38;15.55;;;9.20;77.10;;;;;;5021767;28;20398;-67
2022/03/24 09:15:01;;;;;;;27.67;15.50;;;9.30;77.20;;;;;;5027215;28;20159;-68
2022/03/24 09:17:26;;;;;;;33.95;17.00;;;9.40;76.60;;;;;;5022611;28;20493;-68
2022/03/24 09:19:52;;;;;;;30.35;16.48;;;9.50;76.90;;;;;;5025159;28;20029;-67
2022/03/24 09:22:18;;;;;;;33.60;17.48;;;9.70;76.30;;;;;;5019051;28;20111;-68
2022/03/24 09:24:43;;;;;;;33.10;16.20;;;9.80;76.50;;;;;;5024632;28;20026;-67
2022/03/24 09:27:09;;;;;;;37.88;16.05;;;10.00;74.00;;;;;;5022437;28;20066;-67
2022/03/24 09:29:35;;;;;;;26.30;14.93;;;10.00;73.40;;;;;;5022668;28;20107;-68
2022/03/24 09:32:01;;;;;;;27.90;15.68;;;10.10;72.80;;;;;;5024914;28;20045;-67
2022/03/24 09:34:27;;;;;;;32.38;15.77;;;10.20;72.20;;;;;;5024253;28;20026;-68
2022/03/24 09:36:52;;;;;;;27.48;16.20;;;10.30;71.10;;;;;;5019303;28;20111;-68
2022/03/24 09:39:19;;;;;;;32.60;16.73;;;10.50;71.20;;;;;;5022092;28;20077;-68
2022/03/24 09:41:47;;;;;;;30.45;17.48;;;10.60;71.10;;;;;;5021896;28;20029;-68
2022/03/24 09:44:14;;;;;;;29.20;17.25;;;10.70;71.10;;;;;;5024599;28;20540;-68
2022/03/24 09:46:41;;;;;;;36.83;18.40;;;10.90;70.70;;;;;;5021453;28;20068;-67
2022/03/24 09:49:10;;;;;;;27.67;16.52;;;10.90;70.10;;;;;;5023009;28;20104;-67
2022/03/24 09:51:40;;;;;;;31.23;16.85;;;11.10;69.90;;;;;;5024824;28;20025;-67
2022/03/24 09:54:07;;;;;;;36.45;18.13;;;11.20;69.40;;;;;;5026544;28;20017;-67
2022/03/24 09:56:33;;;;;;;34.42;18.40;;;11.20;69.60;;;;;;5023604;28;20089;-66
2022/03/24 09:58:59;;;;;;;33.95;17.45;;;11.30;68.80;;;;;;5021871;28;20084;-68
2022/03/24 10:01:25;;;;;;;27.38;16.08;;;11.40;68.30;;;;;;5022407;28;20767;-67
2022/03/24 10:04:11;;;;;;;28.42;15.70;;;11.50;68.10;;;;;;5052669;23;20041;-68
2022/03/24 10:07:00;;;;;;;32.83;16.98;;;11.70;67.20;;;;;;5025613;28;20021;-68
2022/03/24 10:09:41;;;;;;;32.30;16.27;;;11.80;66.30;;;;;;5037508;28;20048;-67
2022/03/24 10:12:08;;;;;;;30.52;16.05;;;11.90;64.60;;;;;;5024539;28;20057;-71
2022/03/24 10:14:34;;;;;;;30.40;16.67;;;12.00;63.30;;;;;;5028160;28;20036;-67
2022/03/24 10:17:08;;;;;;;29.88;16.48;;;12.10;62.50;;;;;;5023039;28;20042;-67
2022/03/24 10:19:34;;;;;;;28.63;15.90;;;12.10;62.80;;;;;;5023292;28;20025;-67
2022/03/24 10:22:07;;;;;;;30.65;17.63;;;12.40;61.20;;;;;;5030241;28;20025;-67
2022/03/24 10:24:40;;;;;;;34.50;19.00;;;12.40;60.40;;;;;;5024589;28;20025;-67
2022/03/24 10:27:06;;;;;;;29.25;16.23;;;12.50;59.70;;;;;;5024669;28;20030;-66
2022/03/24 10:29:35;;;;;;;33.03;16.98;;;12.70;58.10;;;;;;5025744;28;20397;-66
2022/03/24 10:32:04;;;;;;;31.25;16.40;;;12.70;58.00;;;;;;5023545;28;20025;-65
2022/03/24 10:34:30;;;;;;;25.67;14.80;;;12.90;55.60;;;;;;5026279;28;20414;-66
2022/03/24 10:36:56;;;;;;;24.75;14.45;;;12.90;54.60;;;;;;5030722;28;20032;-65
2022/03/24 10:39:28;;;;;;;27.05;16.00;;;12.90;55.00;;;;;;5017781;28;21307;-65
2022/03/24 10:42:09;;;;;;;26.38;14.20;;;13.00;54.70;;;;;;5023175;28;20026;-68
2022/03/24 10:44:35;;;;;;;27.13;15.05;;;13.10;52.90;;;;;;5023772;28;20034;-67
2022/03/24 10:47:00;;;;;;;24.00;14.82;;;13.30;53.20;;;;;;5028206;28;20087;-67
2022/03/24 10:49:27;;;;;;;27.65;15.13;;;13.40;52.20;;;;;;5022252;28;20034;-67
2022/03/24 10:51:54;;;;;;;26.05;14.27;;;13.30;52.70;;;;;;5022595;28;20539;-67
2022/03/24 10:54:41;;;;;;;26.45;16.35;;;13.50;52.30;;;;;;5025504;28;20038;-67
2022/03/24 10:57:15;;;;;;;25.27;14.43;;;13.50;54.40;;;;;;5027036;28;20034;-67
2022/03/24 10:59:46;;;;;;;28.65;15.27;;;13.70;54.50;;;;;;5023097;28;20021;-67
2022/03/24 11:02:13;;;;;;;26.30;15.75;;;13.80;54.60;;;;;;5023216;28;20018;-68
2022/03/24 11:04:39;;;;;;;31.15;15.95;;;13.80;55.00;;;;;;5025121;28;20083;-67
2022/03/24 11:07:05;;;;;;;26.65;15.07;;;14.00;52.70;;;;;;5028868;28;20129;-67
2022/03/24 11:09:33;;;;;;;27.88;16.05;;;14.10;52.50;;;;;;5029313;28;20045;-67
2022/03/24 11:12:26;;;;;;;28.02;14.98;;;14.30;51.90;;;;;;5022684;28;20075;-68
2022/03/24 11:14:56;;;;;;;26.25;14.45;;;14.60;51.00;;;;;;5024785;28;20497;-68
2022/03/24 11:17:27;;;;;;;27.05;15.35;;;14.60;50.30;;;;;;5026195;28;20096;-68
2022/03/24 11:20:21;;;;;;;26.85;15.25;;;14.70;50.70;;;;;;5023381;28;20099;-68
2022/03/24 11:22:51;;;;;;;;;;;14.70;50.40;;;;;;5020632;28;20038;-66
2022/03/24 11:25:18;;;;;;;25.27;15.60;;;14.90;49.00;;;;;;5030398;28;19916;-67
2022/03/24 11:27:45;;;;;;;23.80;14.35;;;15.00;49.50;;;;;;5025345;28;20502;-68
2022/03/24 11:30:12;;;;;;;25.23;14.80;;;14.90;49.60;;;;;;5025893;28;20017;-68
2022/03/24 11:32:41;;;;;;;23.15;14.70;;;15.00;49.00;;;;;;5023464;28;20075;-68
2022/03/24 11:35:08;;;;;;;24.40;13.77;;;15.10;47.90;;;;;;5020974;28;20030;-65
2022/03/24 11:37:35;;;;;;;22.75;13.85;;;15.20;47.60;;;;;;5024274;28;20096;-68
2022/03/24 11:40:15;;;;;;;23.17;14.13;;;15.30;46.80;;;;;;5023818;28;20026;-67
2022/03/24 11:42:46;;;;;;;20.83;13.95;;;15.30;46.40;;;;;;5026363;28;20029;-67
2022/03/24 11:45:14;;;;;;;24.42;15.15;;;15.40;45.60;;;;;;5022734;28;20109;-69
2022/03/24 11:47:54;;;;;;;24.42;13.63;;;15.40;45.60;;;;;;5029357;28;20054;-69
2022/03/24 11:50:34;;;;;;;26.00;15.05;;;15.50;45.10;;;;;;5029543;28;20022;-71
2022/03/24 11:53:27;;;;;;;27.08;14.82;;;15.50;44.60;;;;;;5025896;28;20040;-69
2022/03/24 11:55:59;;;;;;;26.95;14.48;;;15.50;44.20;;;;;;5029547;28;20025;-70
2022/03/24 11:59:06;;;;;;;21.50;13.15;;;15.50;44.50;;;;;;5029986;28;20026;-69
2022/03/24 12:01:33;;;;;;;21.15;13.07;;;15.60;43.80;;;;;;5028534;28;20371;-70
2022/03/24 12:04:00;;;;;;;22.00;13.70;;;15.70;42.90;;;;;;5031282;28;20029;-69
2022/03/24 12:09:09;;;;;;;25.23;14.77;;;15.90;43.70;;;;;;5027965;28;20082;-68
2022/03/24 12:11:37;;;;;;;21.60;13.57;;;16.00;43.30;;;;;;5028622;28;20079;-68
2022/03/24 12:14:13;;;;;;;20.40;13.70;;;16.10;42.60;;;;;;5031340;28;20036;-69
2022/03/24 12:16:41;;;;;;;24.80;13.98;;;16.20;41.90;;;;;;5030376;28;20159;-69
2022/03/24 12:19:36;;;;;;;19.48;12.68;;;16.20;41.70;;;;;;5031071;28;20022;-69
2022/03/24 12:22:28;;;;;;;19.58;13.15;;;16.20;41.10;;;;;;5029558;28;20021;-69
2022/03/24 12:25:00;;;;;;;20.08;12.85;;;16.30;40.70;;;;;;5029183;28;20029;-69
2022/03/24 12:27:31;;;;;;;23.00;13.93;;;16.30;40.80;;;;;;5028007;28;20374;-68
2022/03/24 12:30:17;;;;;;;17.08;11.48;;;16.40;39.90;;;;;;5025377;28;20025;-68
2022/03/24 12:33:00;;;;;;;19.38;12.20;;;16.30;39.90;;;;;;5022512;28;20060;-68
2022/03/24 12:35:49;;;;;;;21.55;11.65;;;16.30;39.80;;;;;;5026743;28;20109;-67
2022/03/24 12:38:40;;;;;;;19.83;12.55;;;16.30;39.90;;;;;;5031665;28;20036;-69
2022/03/24 12:41:06;;;;;;;23.83;12.50;;;16.30;40.10;;;;;;5030646;28;20033;-68
2022/03/24 12:43:51;;;;;;;16.67;11.57;;;16.30;39.90;;;;;;5033415;28;20654;-68
2022/03/24 12:46:32;;;;;;;20.17;12.80;;;16.40;39.50;;;;;;5027356;28;20465;-69